createdAt,value
2023-03-21T00:01:22.506Z,67.59
2023-03-21T00:03:57.044Z,67.84
2023-03-21T00:06:32.588Z,67.61
2023-03-21T00:09:07.221Z,67.56
2023-03-21T00:11:41.452Z,67.75
2023-03-21T00:14:18.888Z,66.75
2023-03-21T00:16:53.354Z,66.33
2023-03-21T00:19:29.212Z,66.51
2023-03-21T00:22:07.941Z,67.01
2023-03-21T00:24:43.012Z,66.82
2023-03-21T00:27:41.384Z,67.52
2023-03-21T00:30:13.658Z,68.16
2023-03-21T00:32:55.394Z,68.26
2023-03-21T00:38:26.856Z,67.99
2023-03-21T00:41:11.041Z,68.73
2023-03-21T00:43:52.099Z,68.26
2023-03-21T00:46:36.274Z,67.80
2023-03-21T00:49:16.800Z,68.04
2023-03-21T00:51:53.300Z,68.62
2023-03-21T00:54:29.315Z,68.89
2023-03-21T00:57:04.236Z,69.09
2023-03-21T00:59:38.440Z,70.11
2023-03-21T01:02:22.806Z,70.11
2023-03-21T01:04:57.338Z,70.19
2023-03-21T01:07:32.118Z,72.16
2023-03-21T01:10:09.001Z,73.02
2023-03-21T01:12:43.525Z,72.34
2023-03-21T01:15:17.932Z,73.50
2023-03-21T01:17:52.529Z,73.53
2023-03-21T01:20:27.235Z,73.50
2023-03-21T01:23:02.182Z,72.93
2023-03-21T01:25:38.090Z,72.59
2023-03-21T01:28:12.994Z,71.88
2023-03-21T01:30:48.290Z,71.93
2023-03-21T01:33:24.192Z,71.56
2023-03-21T01:36:12.313Z,71.45
2023-03-21T01:38:48.059Z,70.95
2023-03-21T01:41:41.901Z,71.28
2023-03-21T01:44:21.379Z,70.47
2023-03-21T01:47:09.667Z,70.38
2023-03-21T01:49:48.626Z,71.17
2023-03-21T01:52:36.575Z,71.13
2023-03-21T01:55:16.048Z,70.82
2023-03-21T01:58:05.380Z,70.53
2023-03-21T02:00:41.575Z,70.94
2023-03-21T02:03:29.504Z,70.96
2023-03-21T02:06:14.950Z,72.00
2023-03-21T02:08:50.015Z,72.30
2023-03-21T02:11:24.604Z,72.00
2023-03-21T02:14:06.745Z,71.66
2023-03-21T02:16:53.773Z,71.48
2023-03-21T02:19:53.952Z,71.14
2023-03-21T02:23:02.096Z,71.46
2023-03-21T02:26:15.620Z,71.79
2023-03-21T02:28:56.506Z,71.62
2023-03-21T02:31:44.136Z,71.58
2023-03-21T02:34:56.486Z,71.26
2023-03-21T02:37:38.647Z,71.70
2023-03-21T02:40:19.825Z,71.84
2023-03-21T02:43:09.220Z,71.92
2023-03-21T02:45:54.145Z,72.79
2023-03-21T02:48:49.950Z,72.79
2023-03-21T02:51:27.503Z,73.22
2023-03-21T02:54:34.882Z,73.32
2023-03-21T02:57:04.723Z,73.28
2023-03-21T02:59:51.647Z,73.40
2023-03-21T03:02:31.001Z,72.87
2023-03-21T03:05:20.724Z,72.44
2023-03-21T03:08:26.543Z,72.75
2023-03-21T03:11:24.158Z,73.29
2023-03-21T03:14:38.379Z,73.53
2023-03-21T03:17:30.802Z,73.52
2023-03-21T03:20:25.864Z,74.14
2023-03-21T03:23:08.750Z,74.43
2023-03-21T03:25:49.089Z,74.46
2023-03-21T03:28:31.985Z,76.15
2023-03-21T03:31:10.326Z,76.78
2023-03-21T03:33:49.646Z,77.16
2023-03-21T03:36:36.010Z,76.58
2023-03-21T03:39:12.760Z,76.92
2023-03-21T03:44:49.465Z,76.72
2023-03-21T03:47:36.310Z,76.71
2023-03-21T03:50:21.915Z,76.02
2023-03-21T03:53:09.778Z,75.26
2023-03-21T03:55:52.572Z,75.33
2023-03-21T03:58:39.767Z,75.77
2023-03-21T04:01:20.812Z,76.04
2023-03-21T04:04:06.965Z,75.46
2023-03-21T04:06:51.758Z,76.30
2023-03-21T04:09:42.671Z,76.03
2023-03-21T04:12:18.610Z,76.96
2023-03-21T04:15:08.174Z,77.26
2023-03-21T04:17:46.639Z,77.14
2023-03-21T04:20:34.223Z,76.92
2023-03-21T04:23:11.396Z,76.47
2023-03-21T04:25:55.871Z,76.55
2023-03-21T04:28:33.597Z,76.52
2023-03-21T04:31:24.545Z,76.27
2023-03-21T04:34:01.908Z,76.06
2023-03-21T04:36:43.102Z,76.11
2023-03-21T04:39:18.038Z,76.10
2023-03-21T04:41:53.130Z,76.53
2023-03-21T04:44:27.426Z,76.52
2023-03-21T04:47:02.097Z,76.48
2023-03-21T04:49:37.998Z,76.38
2023-03-21T04:52:12.618Z,76.32
2023-03-21T04:54:47.204Z,75.98
2023-03-21T04:57:21.969Z,76.25
2023-03-21T04:59:57.180Z,76.36
2023-03-21T05:02:31.786Z,76.14
2023-03-21T05:05:11.375Z,76.09
2023-03-21T05:07:45.973Z,84.43
2023-03-21T05:10:20.569Z,87.18
2023-03-21T05:12:55.368Z,75.46
2023-03-21T05:15:29.694Z,75.43
2023-03-21T05:18:11.090Z,76.27
2023-03-21T05:20:54.247Z,76.31
2023-03-21T05:23:31.797Z,76.06
2023-03-21T05:26:08.322Z,76.38
2023-03-21T05:28:44.644Z,77.26
2023-03-21T05:31:20.486Z,76.89
2023-03-21T05:33:57.707Z,76.99
2023-03-21T05:36:36.168Z,76.75
2023-03-21T05:39:11.601Z,76.54
2023-03-21T05:41:47.169Z,76.53
2023-03-21T05:44:22.007Z,76.33
2023-03-21T05:46:56.399Z,76.67
2023-03-21T05:49:31.830Z,76.50
2023-03-21T05:52:08.933Z,76.63
2023-03-21T05:54:43.827Z,75.98
2023-03-21T05:57:19.257Z,75.79
2023-03-21T05:59:55.670Z,75.15
2023-03-21T06:02:30.066Z,91.14
2023-03-21T06:05:06.384Z,73.91
2023-03-21T06:07:42.342Z,73.15
2023-03-21T06:10:18.191Z,73.56
2023-03-21T06:12:55.523Z,73.29
2023-03-21T06:15:30.691Z,72.45
2023-03-21T06:18:05.668Z,72.77
2023-03-21T06:20:40.637Z,72.52
2023-03-21T06:23:18.044Z,75.16
2023-03-21T06:25:52.600Z,72.79
2023-03-21T06:28:27.461Z,70.88
2023-03-21T06:31:02.467Z,70.70
2023-03-21T06:33:36.695Z,70.92
2023-03-21T06:36:12.036Z,70.58
2023-03-21T06:38:48.803Z,70.39
2023-03-21T06:41:23.512Z,70.79
2023-03-21T06:43:58.127Z,70.19
2023-03-21T06:46:33.218Z,70.10
2023-03-21T06:49:07.542Z,70.22
2023-03-21T06:51:42.332Z,70.05
2023-03-21T06:54:19.047Z,69.83
2023-03-21T06:56:54.359Z,69.85
2023-03-21T06:59:29.055Z,69.56
2023-03-21T07:02:57.959Z,69.43
2023-03-21T07:05:33.140Z,69.43
2023-03-21T07:08:10.338Z,70.46
2023-03-21T07:10:47.102Z,76.81
2023-03-21T07:13:22.360Z,76.74
2023-03-21T07:15:58.739Z,68.43
2023-03-21T07:18:34.807Z,68.60
2023-03-21T07:21:10.839Z,69.01
2023-03-21T07:23:45.793Z,68.34
2023-03-21T07:26:20.826Z,69.22
2023-03-21T07:28:55.158Z,67.79
2023-03-21T07:31:30.994Z,68.64
2023-03-21T07:34:06.874Z,68.04
2023-03-21T07:36:41.594Z,68.10
2023-03-21T07:39:17.805Z,67.79
2023-03-21T07:41:52.371Z,66.24
2023-03-21T07:44:29.563Z,65.50
2023-03-21T07:47:07.839Z,65.16
2023-03-21T07:49:43.567Z,65.08
2023-03-21T07:52:18.115Z,64.39
2023-03-21T07:54:52.395Z,64.65
2023-03-21T07:57:27.075Z,64.18
2023-03-21T08:00:01.421Z,64.37
2023-03-21T08:02:36.913Z,63.56
2023-03-21T08:05:12.914Z,63.88
2023-03-21T08:07:47.603Z,69.12
2023-03-21T08:10:25.188Z,61.80
2023-03-21T08:12:59.676Z,62.01
2023-03-21T08:15:34.287Z,61.23
2023-03-21T08:18:08.620Z,61.12
2023-03-21T08:20:44.616Z,60.78
2023-03-21T08:23:18.749Z,59.95
2023-03-21T08:25:54.238Z,59.68
2023-03-21T08:28:28.986Z,58.65
2023-03-21T08:31:09.436Z,57.89
2023-03-21T08:33:43.790Z,58.02
2023-03-21T08:36:19.753Z,55.64
2023-03-21T08:38:57.247Z,56.32
2023-03-21T08:41:32.026Z,56.81
2023-03-21T08:44:07.560Z,54.87
2023-03-21T08:46:42.092Z,54.77
2023-03-21T08:49:16.381Z,52.84
2023-03-21T08:51:57.171Z,53.11
2023-03-21T08:54:31.521Z,53.45
2023-03-21T08:57:06.129Z,52.85
2023-03-21T08:59:40.517Z,53.10
2023-03-21T09:02:15.873Z,54.60
2023-03-21T09:04:53.349Z,52.34
2023-03-21T09:07:29.716Z,53.01
2023-03-21T09:10:19.568Z,52.55
2023-03-21T09:12:56.770Z,52.71
2023-03-21T09:15:31.710Z,52.94
2023-03-21T09:18:15.152Z,54.26
2023-03-21T09:20:50.560Z,54.27
2023-03-21T09:23:27.577Z,54.62
2023-03-21T09:26:02.040Z,54.60
2023-03-21T09:28:37.687Z,53.84
2023-03-21T09:31:12.412Z,53.60
2023-03-21T09:33:47.724Z,53.15
2023-03-21T09:36:25.145Z,54.24
2023-03-21T09:39:01.785Z,54.68
2023-03-21T09:41:59.008Z,54.96
2023-03-21T09:44:46.181Z,53.26
2023-03-21T09:47:25.372Z,52.49
2023-03-21T09:50:13.735Z,51.03
2023-03-21T09:52:53.024Z,50.54
2023-03-21T09:55:32.432Z,50.27
2023-03-21T09:58:16.266Z,46.00
2023-03-21T10:00:56.853Z,47.69
2023-03-21T10:03:35.363Z,46.70
2023-03-21T10:06:16.095Z,46.97
2023-03-21T10:08:52.498Z,47.71
2023-03-21T10:11:32.381Z,46.69
2023-03-21T10:14:12.740Z,48.00
2023-03-21T10:16:49.981Z,44.94
2023-03-21T10:19:25.307Z,45.30
2023-03-21T10:22:01.830Z,46.77
2023-03-21T10:24:38.390Z,47.39
2023-03-21T10:27:14.777Z,47.01
2023-03-21T10:29:53.343Z,45.88
2023-03-21T10:32:28.061Z,46.18
2023-03-21T10:35:05.325Z,45.54
2023-03-21T10:37:39.907Z,46.73
2023-03-21T10:40:17.329Z,48.14
2023-03-21T10:42:55.762Z,47.58
2023-03-21T10:45:35.159Z,46.87
2023-03-21T10:48:10.108Z,47.45
2023-03-21T10:50:49.247Z,47.78
2023-03-21T10:53:28.649Z,47.21
2023-03-21T10:56:07.870Z,48.29
2023-03-21T10:58:47.454Z,47.15
2023-03-21T11:01:30.571Z,47.66
2023-03-21T11:04:10.136Z,47.91
2023-03-21T11:06:47.392Z,46.33
2023-03-21T11:09:25.237Z,55.82
2023-03-21T11:12:05.996Z,46.61
2023-03-21T11:14:43.385Z,45.62
2023-03-21T11:17:24.453Z,46.70
2023-03-21T11:20:00.313Z,45.32
2023-03-21T11:22:40.800Z,46.18
2023-03-21T11:25:24.590Z,44.93
2023-03-21T11:27:59.307Z,43.48
2023-03-21T11:30:35.452Z,43.89
2023-03-21T11:33:10.440Z,45.37
2023-03-21T11:35:44.744Z,42.60
2023-03-21T11:38:27.523Z,41.89
2023-03-21T11:41:03.082Z,41.61
2023-03-21T11:43:39.752Z,41.15
2023-03-21T11:46:16.382Z,39.76
2023-03-21T11:48:51.353Z,39.51
2023-03-21T11:51:33.295Z,40.15
2023-03-21T11:54:14.064Z,38.16
2023-03-21T11:56:50.429Z,40.21
2023-03-21T11:59:39.084Z,40.98
2023-03-21T12:02:55.337Z,40.95
2023-03-21T12:05:35.151Z,41.83
2023-03-21T12:08:24.544Z,41.47
2023-03-21T12:11:06.287Z,40.82
2023-03-21T12:13:51.543Z,39.66
2023-03-21T12:16:46.552Z,38.85
2023-03-21T12:19:55.001Z,37.20
2023-03-21T12:22:37.440Z,37.86
2023-03-21T12:25:17.063Z,39.18
2023-03-21T12:28:03.770Z,39.05
2023-03-21T12:30:50.980Z,40.92
2023-03-21T12:33:36.988Z,39.51
2023-03-21T12:36:25.915Z,38.88
2023-03-21T12:39:14.815Z,40.70
2023-03-21T12:41:58.934Z,37.68
2023-03-21T12:44:37.935Z,36.53
2023-03-21T12:47:17.755Z,37.59
2023-03-21T12:49:57.606Z,35.54
2023-03-21T12:52:36.798Z,37.22
2023-03-21T12:55:19.775Z,35.92
2023-03-21T12:57:58.067Z,36.38
2023-03-21T13:00:39.624Z,36.20
2023-03-21T13:03:20.935Z,36.15
2023-03-21T13:06:00.060Z,35.20
2023-03-21T13:08:40.017Z,36.73
2023-03-21T13:11:19.494Z,37.22
2023-03-21T13:14:00.755Z,36.04
2023-03-21T13:16:40.821Z,34.99
2023-03-21T13:19:24.735Z,35.96
2023-03-21T13:22:07.497Z,34.66
2023-03-21T13:24:48.355Z,33.07
2023-03-21T13:27:32.198Z,34.16
2023-03-21T13:30:08.782Z,35.43
2023-03-21T13:32:45.477Z,35.21
2023-03-21T13:35:27.488Z,43.09
2023-03-21T13:38:06.672Z,36.89
2023-03-21T13:40:47.152Z,36.29
2023-03-21T13:43:41.483Z,37.07
2023-03-21T13:46:50.384Z,37.15
2023-03-21T13:49:31.114Z,37.10
2023-03-21T13:52:28.261Z,38.68
2023-03-21T13:55:04.716Z,39.27
2023-03-21T13:57:40.757Z,39.80
2023-03-21T14:00:19.101Z,39.82
2023-03-21T14:03:00.006Z,40.78
2023-03-21T14:05:35.601Z,39.24
2023-03-21T14:08:24.822Z,38.48
2023-03-21T14:11:08.524Z,38.06
2023-03-21T14:13:51.302Z,37.95
2023-03-21T14:16:28.731Z,37.23
2023-03-21T14:19:06.085Z,36.02
2023-03-21T14:21:50.408Z,36.21
2023-03-21T14:24:25.472Z,35.88
2023-03-21T14:27:01.989Z,35.76
2023-03-21T14:29:40.631Z,36.41
2023-03-21T14:32:23.477Z,36.00
2023-03-21T14:35:01.160Z,34.32
2023-03-21T14:37:39.979Z,33.97
2023-03-21T14:40:24.191Z,34.91
2023-03-21T14:42:59.752Z,35.35
2023-03-21T14:45:38.484Z,35.81
2023-03-21T14:48:16.489Z,35.04
2023-03-21T14:50:53.145Z,35.31
2023-03-21T14:53:29.675Z,35.16
2023-03-21T14:56:10.160Z,35.29
2023-03-21T14:58:46.704Z,36.13
2023-03-21T15:03:16.285Z,36.44
2023-03-21T15:05:51.398Z,36.44
2023-03-21T15:08:27.728Z,37.09
2023-03-21T15:11:07.689Z,37.62
2023-03-21T15:13:46.690Z,37.23
2023-03-21T15:16:21.875Z,37.18
2023-03-21T15:18:58.512Z,37.13
2023-03-21T15:21:37.551Z,36.48
2023-03-21T15:24:16.414Z,36.79
2023-03-21T15:26:52.676Z,37.15
2023-03-21T15:29:27.543Z,37.99
2023-03-21T15:32:06.057Z,37.34
2023-03-21T15:34:41.801Z,38.38
2023-03-21T15:37:24.898Z,38.32
2023-03-21T15:40:11.453Z,39.20
2023-03-21T15:42:46.434Z,40.05
2023-03-21T15:45:24.678Z,40.68
2023-03-21T15:48:03.530Z,40.56
2023-03-21T15:50:41.546Z,41.55
2023-03-21T15:53:18.905Z,41.29
2023-03-21T15:55:57.450Z,41.44
2023-03-21T15:58:36.454Z,41.62
2023-03-21T16:01:17.069Z,41.81
2023-03-21T16:03:58.192Z,42.54
2023-03-21T16:06:35.840Z,43.40
2023-03-21T16:09:14.187Z,43.08
2023-03-21T16:11:51.441Z,44.36
2023-03-21T16:14:28.641Z,44.41
2023-03-21T16:17:02.931Z,43.74
2023-03-21T16:19:37.692Z,44.13
2023-03-21T16:22:13.228Z,43.13
2023-03-21T16:24:47.814Z,43.83
2023-03-21T16:27:22.411Z,43.25
2023-03-21T16:29:57.046Z,43.92
2023-03-21T16:32:31.282Z,44.60
2023-03-21T16:35:07.169Z,44.97
2023-03-21T16:37:42.870Z,45.43
2023-03-21T16:40:24.134Z,46.05
2023-03-21T16:42:59.796Z,46.59
2023-03-21T16:45:34.614Z,46.70
2023-03-21T16:48:12.458Z,47.43
2023-03-21T16:50:48.993Z,47.44
2023-03-21T16:53:24.575Z,47.55
2023-03-21T16:56:02.819Z,48.13
2023-03-21T16:58:37.164Z,47.97
2023-03-21T17:01:15.836Z,48.82
2023-03-21T17:03:50.216Z,48.32
2023-03-21T17:06:26.332Z,48.76
2023-03-21T17:09:02.497Z,48.74
2023-03-21T17:11:41.636Z,48.67
2023-03-21T17:14:18.033Z,49.05
2023-03-21T17:16:52.742Z,49.31
2023-03-21T17:19:28.486Z,50.21
2023-03-21T17:22:03.410Z,51.13
2023-03-21T17:24:39.114Z,50.63
2023-03-21T17:27:18.497Z,50.18
2023-03-21T17:29:53.235Z,49.88
2023-03-21T17:32:27.946Z,50.13
2023-03-21T17:35:02.923Z,51.14
2023-03-21T17:37:38.640Z,52.23
2023-03-21T17:40:15.786Z,51.76
2023-03-21T17:42:53.308Z,72.43
2023-03-21T17:45:27.637Z,65.49
2023-03-21T17:48:03.096Z,53.93
2023-03-21T17:50:39.561Z,52.40
2023-03-21T17:53:15.037Z,51.32
2023-03-21T17:55:50.892Z,51.78
2023-03-21T17:58:26.322Z,51.54
2023-03-21T18:01:00.927Z,52.57
2023-03-21T18:03:35.885Z,53.26
2023-03-21T18:06:17.312Z,53.32
2023-03-21T18:08:53.253Z,53.70
2023-03-21T18:11:29.518Z,54.00
2023-03-21T18:14:15.945Z,53.56
2023-03-21T18:16:54.402Z,53.00
2023-03-21T18:19:29.634Z,53.75
2023-03-21T18:22:04.187Z,53.79
2023-03-21T18:24:39.415Z,53.67
2023-03-21T18:27:15.199Z,53.92
2023-03-21T18:32:44.410Z,74.69
2023-03-21T18:35:21.298Z,72.21
2023-03-21T18:37:56.393Z,55.21
2023-03-21T18:40:31.246Z,53.81
2023-03-21T18:43:55.946Z,52.72
2023-03-21T18:46:02.420Z,53.43
2023-03-21T18:48:37.019Z,53.44
2023-03-21T18:51:12.438Z,53.98
2023-03-21T18:53:47.179Z,54.71
2023-03-21T18:57:13.035Z,54.89
2023-03-21T18:59:19.994Z,54.63
2023-03-21T19:01:54.946Z,54.83
2023-03-21T19:04:30.588Z,54.90
2023-03-21T19:07:07.684Z,56.14
2023-03-21T19:10:05.270Z,56.92
2023-03-21T19:12:39.268Z,56.71
2023-03-21T19:15:17.912Z,75.88
2023-03-21T19:20:49.318Z,55.92
2023-03-21T19:23:24.927Z,55.60
2023-03-21T19:25:59.223Z,55.90
2023-03-21T19:28:34.110Z,55.52
2023-03-21T19:31:10.545Z,55.51
2023-03-21T19:33:46.238Z,55.49
2023-03-21T19:36:22.672Z,55.51
2023-03-21T19:38:58.116Z,55.73
2023-03-21T19:41:34.200Z,57.24
2023-03-21T19:44:09.637Z,58.12
2023-03-21T19:46:45.481Z,58.48
2023-03-21T19:49:52.141Z,58.84
2023-03-21T19:52:27.332Z,58.92
2023-03-21T19:55:02.027Z,58.33
2023-03-21T19:57:36.538Z,57.75
2023-03-21T20:00:12.464Z,57.64
2023-03-21T20:02:48.739Z,57.69
2023-03-21T20:05:25.649Z,57.75
2023-03-21T20:08:04.146Z,79.61
2023-03-21T20:10:38.816Z,71.67
2023-03-21T20:13:13.787Z,57.33
2023-03-21T20:15:48.415Z,55.84
2023-03-21T20:18:25.394Z,56.73
2023-03-21T20:21:02.036Z,55.48
2023-03-21T20:23:39.111Z,56.77
2023-03-21T21:35:58.531Z,59.70
2023-03-21T21:38:34.891Z,59.70
2023-03-21T21:41:15.801Z,60.30
2023-03-21T21:43:50.534Z,60.99
2023-03-21T21:46:24.837Z,61.93
2023-03-21T21:48:59.845Z,61.89
2023-03-21T21:51:36.492Z,62.43
2023-03-21T21:54:11.064Z,63.34
2023-03-21T21:56:48.607Z,62.26
2023-03-21T21:59:24.525Z,62.05
2023-03-21T22:01:58.873Z,61.75
2023-03-21T22:04:34.835Z,61.86
2023-03-21T22:07:14.544Z,62.79
2023-03-21T22:09:49.392Z,63.60
2023-03-21T22:12:24.032Z,63.52
2023-03-21T22:14:58.511Z,63.22
2023-03-21T22:17:32.651Z,63.07
2023-03-21T22:20:09.870Z,62.62
2023-03-21T22:22:46.164Z,62.48
2023-03-21T22:25:20.768Z,62.26
2023-03-21T22:27:55.178Z,62.51
2023-03-21T22:30:30.760Z,62.54
2023-03-21T22:33:09.637Z,62.93
2023-03-21T22:35:44.640Z,62.88
2023-03-21T22:38:24.338Z,63.38
2023-03-21T22:40:59.927Z,63.67
2023-03-21T22:43:35.452Z,63.46
2023-03-21T22:46:10.165Z,63.73
2023-03-21T22:48:44.582Z,63.77
2023-03-21T22:51:19.267Z,63.91
2023-03-21T22:53:54.969Z,64.03
2023-03-21T22:56:29.682Z,64.21
2023-03-21T22:59:04.065Z,64.58
2023-03-21T23:04:32.545Z,63.29
2023-03-21T23:07:08.364Z,63.29
2023-03-21T23:09:42.818Z,64.15
2023-03-21T23:12:17.330Z,64.11
2023-03-21T23:14:51.894Z,63.62
2023-03-21T23:17:26.743Z,63.56
2023-03-21T23:20:04.417Z,63.43
2023-03-21T23:22:39.082Z,64.25
2023-03-21T23:25:13.603Z,64.23
2023-03-21T23:27:48.197Z,63.83
2023-03-21T23:30:22.434Z,63.49
2023-03-21T23:32:57.492Z,64.29
2023-03-21T23:35:34.814Z,65.12
2023-03-21T23:38:09.341Z,65.64
2023-03-21T23:40:43.596Z,64.83
2023-03-21T23:43:18.312Z,64.93
2023-03-21T23:45:52.588Z,64.98
2023-03-21T23:48:27.559Z,65.18
2023-03-21T23:51:03.666Z,64.74
2023-03-21T23:53:39.399Z,65.48
2023-03-21T23:56:15.756Z,66.20
2023-03-21T23:58:51.357Z,66.45
